Time;durP1;ratioP1;P1;durP2;ratioP2;P2;SDS_P1;SDS_P2;PMS_P1;PMS_P2;Temp;Humidity;BMP_temperature;BMP_pressure;BME280_temperature;BME280_humidity;BME280_pressure;Samples;Min_cycle;Max_cycle;Signal;HPM_P1;HPM_P2
2022/10/25 00:02:23;;;;;;;7.67;1.50;;;14.30;99.90;;;;;;5035445;28;20258;-92
2022/10/25 00:04:53;;;;;;;6.53;1.63;;;14.30;99.90;;;;;;5034518;28;20203;-93
2022/10/25 00:07:22;;;;;;;7.37;2.20;;;14.30;99.90;;;;;;5032048;28;20204;-95
2022/10/25 00:09:52;;;;;;;4.77;1.90;;;14.30;99.90;;;;;;5027445;28;20208;-95
2022/10/25 00:12:41;;;;;;;8.23;1.90;;;14.30;99.90;;;;;;5015650;28;20251;-92
2022/10/25 00:15:13;;;;;;;7.80;2.23;;;14.30;99.90;;;;;;5028662;28;20215;-95
2022/10/25 00:17:43;;;;;;;8.57;1.70;;;14.30;99.90;;;;;;5036999;28;20188;-92
2022/10/25 00:20:17;;;;;;;6.73;1.60;;;14.30;99.90;;;;;;5037556;28;20211;-92
2022/10/25 00:22:48;;;;;;;6.83;1.53;;;14.30;99.90;;;;;;5038782;28;20237;-93
2022/10/25 00:25:17;;;;;;;3.93;1.53;;;14.30;99.90;;;;;;5037744;28;20192;-90
2022/10/25 00:27:52;;;;;;;5.30;1.67;;;14.30;99.90;;;;;;5037998;28;20210;-93
2022/10/25 00:30:21;;;;;;;6.63;1.80;;;14.30;99.90;;;;;;5039116;28;20187;-91
2022/10/25 00:32:51;;;;;;;7.33;2.47;;;14.30;99.90;;;;;;5038521;28;20219;-91
2022/10/25 00:35:19;;;;;;;7.83;1.60;;;14.40;99.90;;;;;;5038408;28;20184;-91
2022/10/25 00:37:46;;;;;;;9.83;2.07;;;14.40;99.90;;;;;;5037356;28;20255;-90
2022/10/25 00:40:14;;;;;;;5.27;1.67;;;14.30;99.90;;;;;;5037318;28;20184;-92
2022/10/25 00:42:42;;;;;;;6.77;1.80;;;14.30;99.90;;;;;;5039033;28;20224;-93
2022/10/25 00:45:22;;;;;;;6.67;1.77;;;14.30;99.90;;;;;;5038366;28;20211;-93
2022/10/25 00:47:54;;;;;;;4.67;1.30;;;14.20;99.90;;;;;;5039229;28;20207;-93
2022/10/25 00:50:32;;;;;;;6.33;2.03;;;14.20;99.90;;;;;;5036223;28;20275;-91
2022/10/25 00:53:06;;;;;;;4.67;1.97;;;14.20;99.90;;;;;;5037551;28;20280;-89
2022/10/25 00:55:33;;;;;;;5.90;1.60;;;14.20;99.90;;;;;;5037091;28;20211;-92
2022/10/25 00:58:08;;;;;;;4.60;1.50;;;14.30;99.90;;;;;;5037994;28;20188;-93
2022/10/25 01:00:37;;;;;;;9.30;1.90;;;14.30;99.90;;;;;;5037220;28;20203;-90
2022/10/25 01:03:05;;;;;;;7.00;1.83;;;14.30;99.90;;;;;;5020225;28;20232;-91
2022/10/25 01:05:34;;;;;;;5.00;1.63;;;14.30;99.90;;;;;;5037817;28;20201;-91
2022/10/25 01:08:02;;;;;;;5.13;1.80;;;14.20;99.90;;;;;;5038506;28;20188;-92
2022/10/25 01:10:29;;;;;;;4.90;1.47;;;14.20;99.90;;;;;;5037782;28;20192;-93
2022/10/25 01:12:56;;;;;;;5.63;1.37;;;14.20;99.90;;;;;;5022040;28;20224;-92
2022/10/25 01:15:35;;;;;;;6.77;1.30;;;14.30;99.90;;;;;;5036246;28;20199;-91
2022/10/25 01:18:10;;;;;;;6.73;1.70;;;14.30;99.90;;;;;;5038454;28;20219;-92
2022/10/25 01:21:06;;;;;;;6.23;1.53;;;14.30;99.90;;;;;;5033930;28;20219;-93
2022/10/25 01:24:00;;;;;;;5.33;1.70;;;14.30;99.90;;;;;;5036058;28;20227;-91
2022/10/25 01:27:09;;;;;;;6.23;1.73;;;14.30;99.90;;;;;;5037815;28;20187;-90
2022/10/25 01:30:06;;;;;;;8.23;1.80;;;14.30;99.90;;;;;;5036380;28;20192;-91
2022/10/25 01:32:41;;;;;;;7.90;1.40;;;14.30;99.90;;;;;;5036598;28;20295;-89
2022/10/25 01:35:19;;;;;;;6.53;1.77;;;14.30;99.90;;;;;;5033120;28;20211;-89
2022/10/25 01:37:57;;;;;;;4.63;1.40;;;14.30;99.90;;;;;;5036367;28;20192;-89
2022/10/25 01:40:40;;;;;;;9.23;1.90;;;14.30;99.90;;;;;;5037057;28;20215;-88
2022/10/25 01:43:17;;;;;;;3.70;1.70;;;14.30;99.90;;;;;;5037377;28;20222;-91
2022/10/25 01:46:02;;;;;;;6.30;1.87;;;14.30;99.90;;;;;;5037282;28;20212;-89
2022/10/25 01:48:42;;;;;;;4.87;1.30;;;14.30;99.90;;;;;;5027020;28;20196;-91
2022/10/25 01:51:26;;;;;;;5.43;1.43;;;14.30;99.90;;;;;;5037029;28;20222;-90
2022/10/25 01:53:55;;;;;;;4.87;1.70;;;14.20;99.90;;;;;;5037537;28;20204;-90
2022/10/25 01:56:45;;;;;;;4.20;1.70;;;14.20;99.90;;;;;;5035937;28;20208;-89
2022/10/25 01:59:39;;;;;;;7.70;2.10;;;14.30;99.90;;;;;;5034492;28;20516;-93
2022/10/25 02:02:15;;;;;;;7.00;2.27;;;14.30;99.90;;;;;;5036520;28;20255;-93
2022/10/25 02:04:55;;;;;;;4.93;1.70;;;14.20;99.90;;;;;;5033794;28;20183;-92
2022/10/25 02:07:28;;;;;;;5.57;1.43;;;14.20;99.90;;;;;;5036953;28;20212;-89
2022/10/25 02:10:03;;;;;;;5.83;1.40;;;14.20;99.90;;;;;;5036676;28;20203;-91
2022/10/25 02:12:38;;;;;;;5.40;1.80;;;14.30;99.90;;;;;;5036831;28;20222;-92
2022/10/25 02:15:16;;;;;;;9.60;1.80;;;14.20;99.90;;;;;;5034233;28;20188;-92
2022/10/25 02:18:04;;;;;;;5.87;1.57;;;14.20;99.90;;;;;;5034821;28;20201;-89
2022/10/25 02:20:38;;;;;;;6.83;1.73;;;14.20;99.90;;;;;;5035387;28;20195;-90
2022/10/25 02:23:06;;;;;;;6.80;1.63;;;14.20;99.90;;;;;;5035294;28;20216;-90
2022/10/25 02:25:40;;;;;;;6.50;1.80;;;14.10;99.90;;;;;;5035946;28;20211;-90
2022/10/25 02:28:10;;;;;;;7.10;2.00;;;14.10;99.90;;;;;;5035509;28;20451;-91
2022/10/25 02:30:40;;;;;;;5.40;2.20;;;14.20;99.90;;;;;;5037394;28;20199;-90
2022/10/25 02:33:08;;;;;;;6.50;1.80;;;14.20;99.90;;;;;;5035670;28;20223;-94
2022/10/25 02:35:37;;;;;;;6.03;1.50;;;14.20;99.90;;;;;;5037274;28;20188;-89
2022/10/25 02:38:07;;;;;;;7.47;2.50;;;14.20;99.90;;;;;;5037199;28;20219;-92
2022/10/25 02:40:34;;;;;;;6.00;1.77;;;14.20;99.90;;;;;;5038087;28;20208;-93
2022/10/25 02:43:01;;;;;;;8.73;2.03;;;14.20;99.90;;;;;;5039641;28;20228;-91
2022/10/25 02:45:29;;;;;;;6.67;1.77;;;14.10;99.90;;;;;;5040756;28;20348;-91
2022/10/25 02:47:57;;;;;;;3.57;1.70;;;14.10;99.90;;;;;;5038740;28;20224;-89
2022/10/25 02:50:27;;;;;;;2.97;1.33;;;14.10;99.90;;;;;;5038213;28;20223;-90
2022/10/25 02:53:01;;;;;;;4.37;1.50;;;14.00;99.90;;;;;;5038996;28;20207;-90
2022/10/25 02:55:34;;;;;;;4.20;1.57;;;14.10;99.90;;;;;;5038044;28;20204;-89
2022/10/25 02:58:01;;;;;;;5.60;2.00;;;14.00;99.90;;;;;;5037393;28;20267;-90
2022/10/25 03:00:29;;;;;;;4.67;1.63;;;13.90;99.90;;;;;;5037098;28;20280;-92
2022/10/25 03:02:58;;;;;;;6.30;1.90;;;13.90;99.90;;;;;;5040895;28;20242;-92
2022/10/25 03:05:25;;;;;;;9.30;1.93;;;13.90;99.90;;;;;;5040443;28;20226;-92
2022/10/25 03:07:52;;;;;;;6.47;1.80;;;13.90;99.90;;;;;;5040295;28;20205;-92
2022/10/25 03:10:20;;;;;;;8.00;2.10;;;13.90;99.90;;;;;;5039129;28;20208;-91
2022/10/25 03:12:47;;;;;;;10.27;2.07;;;13.90;99.90;;;;;;5038982;28;20223;-90
2022/10/25 03:15:14;;;;;;;9.77;1.97;;;13.90;99.90;;;;;;5030800;28;20275;-91
2022/10/25 03:17:42;;;;;;;5.77;1.70;;;13.90;99.90;;;;;;5028851;28;20299;-92
2022/10/25 03:20:10;;;;;;;3.67;1.50;;;13.80;99.90;;;;;;5035697;28;20227;-90
2022/10/25 03:22:38;;;;;;;7.50;1.70;;;13.80;99.90;;;;;;5032498;28;20251;-90
2022/10/25 03:25:06;;;;;;;8.55;2.03;;;13.80;99.90;;;;;;5033591;28;20472;-90
2022/10/25 03:27:34;;;;;;;9.83;1.80;;;13.80;99.90;;;;;;5032030;28;20258;-89
2022/10/25 03:30:01;;;;;;;5.83;1.80;;;13.80;99.90;;;;;;5030045;28;20227;-89
2022/10/25 03:32:29;;;;;;;7.97;2.10;;;13.80;99.90;;;;;;5033383;28;20228;-89
2022/10/25 03:34:57;;;;;;;7.07;1.97;;;13.80;99.90;;;;;;5030342;28;20211;-91
2022/10/25 03:37:26;;;;;;;6.17;2.13;;;13.70;99.90;;;;;;5011570;28;20303;-88
2022/10/25 03:39:54;;;;;;;4.87;1.90;;;13.70;99.90;;;;;;5026059;28;20212;-90
2022/10/25 03:42:21;;;;;;;6.53;1.63;;;13.70;99.90;;;;;;5025421;28;20236;-88
2022/10/25 03:44:50;;;;;;;6.23;2.00;;;13.60;99.90;;;;;;5031664;28;20670;-88
2022/10/25 03:47:17;;;;;;;10.10;2.00;;;13.60;99.90;;;;;;5031350;28;20215;-90
2022/10/25 03:49:44;;;;;;;9.40;2.60;;;13.60;99.90;;;;;;5030613;28;20300;-89
2022/10/25 03:52:11;;;;;;;7.17;2.57;;;13.60;99.90;;;;;;5030179;28;20246;-88
2022/10/25 03:54:38;;;;;;;6.83;2.47;;;13.60;99.90;;;;;;5032184;28;20192;-90
2022/10/25 03:57:06;;;;;;;6.30;2.17;;;13.60;99.90;;;;;;5031607;28;20208;-89
2022/10/25 03:59:33;;;;;;;14.90;2.70;;;13.60;99.90;;;;;;5031591;28;20224;-89
2022/10/25 04:02:02;;;;;;;8.47;2.70;;;13.70;99.90;;;;;;5026937;28;20301;-89
2022/10/25 04:04:29;;;;;;;7.57;2.83;;;13.60;99.90;;;;;;5023462;28;20234;-91
2022/10/25 04:07:02;;;;;;;6.63;3.33;;;13.50;99.90;;;;;;5020299;28;20291;-93
2022/10/25 04:09:45;;;;;;;10.00;3.53;;;13.50;99.90;;;;;;5017575;28;20217;-90
2022/10/25 04:12:13;;;;;;;13.60;3.60;;;13.50;99.90;;;;;;5017321;28;20235;-95
2022/10/25 04:14:41;;;;;;;6.87;3.17;;;13.50;99.90;;;;;;5017844;28;20290;-89
2022/10/25 04:17:11;;;;;;;6.57;3.47;;;13.50;99.90;;;;;;5020499;28;20235;-94
2022/10/25 04:19:38;;;;;;;9.67;3.70;;;13.40;99.90;;;;;;5023268;28;20550;-90
2022/10/25 04:22:10;;;;;;;10.47;4.33;;;13.50;99.90;;;;;;5024741;28;20295;-91
2022/10/25 04:24:37;;;;;;;9.30;4.30;;;13.50;99.90;;;;;;5023277;28;20286;-94
2022/10/25 04:27:05;;;;;;;13.27;5.33;;;13.50;99.90;;;;;;5019524;28;20282;-91
2022/10/25 04:29:42;;;;;;;9.83;5.27;;;13.40;99.90;;;;;;5019953;28;20232;-94
2022/10/25 04:32:13;;;;;;;10.30;5.07;;;13.50;99.90;;;;;;5004091;28;20232;-95
2022/10/25 04:34:42;;;;;;;10.27;5.13;;;13.40;99.90;;;;;;5014771;28;20271;-92
2022/10/25 04:37:09;;;;;;;7.93;5.43;;;13.40;99.90;;;;;;5016663;28;20212;-95
2022/10/25 04:39:45;;;;;;;9.43;5.73;;;13.60;99.90;;;;;;5016507;28;20287;-91
2022/10/25 04:42:14;;;;;;;9.03;5.23;;;13.40;99.90;;;;;;5012317;28;20633;-92
2022/10/25 04:44:43;;;;;;;12.23;5.60;;;13.50;99.90;;;;;;5016215;28;20219;-93
2022/10/25 04:47:11;;;;;;;8.47;6.10;;;13.40;99.90;;;;;;5011878;28;20254;-92
2022/10/25 04:49:39;;;;;;;8.80;5.83;;;13.40;99.90;;;;;;5016081;28;20211;-90
2022/10/25 04:52:06;;;;;;;11.70;5.90;;;13.40;99.90;;;;;;5016056;28;20251;-95
2022/10/25 04:54:33;;;;;;;10.47;6.10;;;13.60;99.90;;;;;;5017225;28;20234;-96
2022/10/25 04:57:01;;;;;;;11.03;6.30;;;13.50;99.90;;;;;;5001345;28;20213;-91
2022/10/25 04:59:31;;;;;;;12.47;6.00;;;13.50;99.90;;;;;;4996678;28;20630;-89
2022/10/25 05:02:16;;;;;;;10.60;5.90;;;13.40;99.90;;;;;;5010150;28;20315;-93
2022/10/25 05:04:48;;;;;;;14.27;6.00;;;13.40;99.90;;;;;;5001080;28;20295;-93
2022/10/25 05:07:18;;;;;;;14.20;5.47;;;13.40;99.90;;;;;;5008660;28;20215;-91
2022/10/25 05:09:46;;;;;;;11.07;5.60;;;13.30;99.90;;;;;;5001170;28;20331;-95
2022/10/25 05:12:17;;;;;;;10.03;4.77;;;13.30;99.90;;;;;;5009895;28;20705;-90
2022/10/25 05:14:49;;;;;;;9.63;5.60;;;13.30;99.90;;;;;;5016507;28;20257;-90
2022/10/25 05:17:18;;;;;;;17.50;5.73;;;13.40;99.90;;;;;;5017430;28;20294;-90
2022/10/25 05:19:45;;;;;;;12.83;5.60;;;13.40;99.90;;;;;;5020528;28;20227;-95
2022/10/25 05:22:16;;;;;;;14.57;6.33;;;13.30;99.90;;;;;;5004512;28;20232;-93
2022/10/25 05:24:43;;;;;;;9.37;5.93;;;13.40;99.90;;;;;;5021427;28;20215;-96
2022/10/25 05:27:10;;;;;;;11.03;5.73;;;13.40;99.90;;;;;;5024176;28;20642;-94
2022/10/25 05:29:39;;;;;;;10.27;5.80;;;13.50;99.90;;;;;;5026441;28;20231;-94
2022/10/25 05:32:08;;;;;;;15.50;5.13;;;13.50;99.90;;;;;;5025425;28;20291;-94
2022/10/25 05:34:35;;;;;;;12.13;5.47;;;13.40;99.90;;;;;;5025750;28;20223;-94
2022/10/25 05:37:03;;;;;;;14.10;5.57;;;13.50;99.90;;;;;;5025344;28;20228;-95
2022/10/25 05:39:32;;;;;;;12.20;4.87;;;13.50;99.90;;;;;;5026803;28;20196;-94
2022/10/25 05:42:05;;;;;;;14.83;4.90;;;13.50;99.90;;;;;;5015706;28;20301;-95
2022/10/25 05:44:34;;;;;;;8.90;4.17;;;13.40;99.90;;;;;;5014596;28;20203;-93
2022/10/25 05:47:07;;;;;;;13.50;4.60;;;13.40;99.90;;;;;;5012955;28;20263;-94
2022/10/25 05:49:39;;;;;;;8.60;3.73;;;13.30;99.90;;;;;;5016148;28;20298;-93
2022/10/25 05:52:07;;;;;;;9.03;3.23;;;13.30;99.90;;;;;;5017052;28;20219;-94
2022/10/25 05:54:40;;;;;;;10.33;3.00;;;13.30;99.90;;;;;;5016822;28;20266;-93
2022/10/25 05:57:09;;;;;;;8.40;3.30;;;13.30;99.90;;;;;;5016870;28;20206;-92
2022/10/25 05:59:40;;;;;;;7.47;3.33;;;13.30;99.90;;;;;;5014504;28;20309;-93
2022/10/25 06:02:10;;;;;;;17.80;4.27;;;13.30;99.90;;;;;;5017748;28;20556;-93
2022/10/25 06:04:37;;;;;;;12.73;2.80;;;13.30;99.90;;;;;;5023410;28;20223;-93
2022/10/25 06:07:06;;;;;;;13.37;3.50;;;13.30;99.90;;;;;;5019238;28;20208;-93
2022/10/25 06:09:38;;;;;;;15.17;3.13;;;13.20;99.90;;;;;;5016977;28;20262;-93
2022/10/25 06:12:11;;;;;;;11.37;3.17;;;13.20;99.90;;;;;;5015635;28;20256;-94
2022/10/25 06:14:41;;;;;;;10.50;2.73;;;13.20;99.90;;;;;;5000880;28;20287;-93
2022/10/25 06:17:11;;;;;;;10.17;2.77;;;13.20;99.90;;;;;;5021016;28;20282;-93
2022/10/25 06:19:38;;;;;;;8.83;2.50;;;13.20;99.90;;;;;;5016469;28;20230;-93
2022/10/25 06:22:05;;;;;;;12.30;3.10;;;13.20;99.90;;;;;;5002160;28;20228;-94
2022/10/25 06:24:35;;;;;;;10.43;3.03;;;13.20;99.90;;;;;;5019163;28;20271;-94
2022/10/25 06:27:09;;;;;;;8.67;2.40;;;13.30;99.90;;;;;;5019529;28;20267;-95
2022/10/25 06:29:42;;;;;;;10.70;2.40;;;13.30;99.90;;;;;;5020375;28;20227;-91
2022/10/25 06:32:09;;;;;;;12.90;3.30;;;13.20;99.90;;;;;;5019885;28;20588;-90
2022/10/25 06:34:39;;;;;;;8.20;2.80;;;13.20;99.90;;;;;;5018854;28;20669;-92
2022/10/25 06:37:06;;;;;;;9.77;2.93;;;13.10;99.90;;;;;;5019004;28;20200;-88
2022/10/25 06:39:36;;;;;;;7.63;3.03;;;13.10;99.90;;;;;;5017860;28;20230;-90
2022/10/25 06:42:04;;;;;;;10.00;3.13;;;13.10;99.90;;;;;;5020629;28;20220;-91
2022/10/25 06:44:58;;;;;;;8.07;2.70;;;13.10;99.90;;;;;;5005940;28;20204;-89
2022/10/25 06:47:31;;;;;;;9.50;3.10;;;13.10;99.90;;;;;;5017943;28;20342;-91
2022/10/25 06:49:58;;;;;;;10.03;3.30;;;13.00;99.90;;;;;;5016837;28;20238;-91
2022/10/25 06:52:37;;;;;;;9.83;3.17;;;13.10;99.90;;;;;;5021569;28;20319;-90
2022/10/25 06:55:05;;;;;;;10.43;3.40;;;13.10;99.90;;;;;;5023629;28;20642;-91
2022/10/25 06:57:37;;;;;;;15.17;3.93;;;13.10;99.90;;;;;;5026112;28;20489;-93
2022/10/25 07:00:14;;;;;;;13.40;3.87;;;13.20;99.90;;;;;;5021500;28;20219;-89
2022/10/25 07:02:54;;;;;;;10.93;2.90;;;13.40;99.90;;;;;;5019430;28;20282;-94
2022/10/25 07:05:33;;;;;;;12.07;3.47;;;13.40;99.90;;;;;;5018333;28;20204;-93
2022/10/25 07:08:44;;;;;;;14.03;3.37;;;13.50;99.90;;;;;;5020652;28;20219;-93
2022/10/25 07:11:20;;;;;;;11.43;3.57;;;13.50;99.90;;;;;;5014883;28;20285;-92
2022/10/25 07:13:50;;;;;;;12.70;3.27;;;13.50;99.90;;;;;;5013085;28;20210;-90
2022/10/25 07:16:23;;;;;;;14.93;3.47;;;13.60;99.90;;;;;;5009108;28;20204;-89
2022/10/25 07:18:51;;;;;;;9.63;3.00;;;13.60;99.90;;;;;;5016145;28;20207;-90
2022/10/25 07:21:22;;;;;;;7.63;3.07;;;13.60;99.90;;;;;;5010302;28;20224;-91
2022/10/25 07:23:51;;;;;;;14.30;3.37;;;13.60;99.90;;;;;;5028105;28;20227;-92
2022/10/25 07:26:27;;;;;;;13.07;3.00;;;13.70;99.90;;;;;;5015887;28;20220;-90
2022/10/25 07:28:56;;;;;;;7.87;2.53;;;13.70;99.90;;;;;;5010887;28;20746;-91
2022/10/25 07:31:31;;;;;;;13.90;3.60;;;13.70;99.90;;;;;;4999630;28;20212;-91
2022/10/25 07:34:00;;;;;;;10.90;2.90;;;13.80;99.90;;;;;;5012193;28;20294;-91
2022/10/25 07:36:34;;;;;;;9.77;2.83;;;13.80;99.90;;;;;;5006880;28;20204;-93
2022/10/25 07:39:03;;;;;;;8.10;3.13;;;13.80;99.90;;;;;;5012679;28;20265;-91
2022/10/25 07:41:32;;;;;;;8.07;2.83;;;13.80;99.90;;;;;;5014099;28;20204;-91
2022/10/25 07:43:59;;;;;;;16.73;3.80;;;13.80;99.90;;;;;;5009267;28;20284;-89
2022/10/25 07:46:46;;;;;;;11.57;3.03;;;13.80;99.90;;;;;;5010693;28;20259;-90
2022/10/25 07:49:13;;;;;;;8.10;3.03;;;13.90;99.90;;;;;;5010162;28;20200;-90
2022/10/25 07:51:51;;;;;;;9.83;3.23;;;13.80;99.90;;;;;;5015158;28;20303;-92
2022/10/25 07:54:33;;;;;;;9.97;3.43;;;13.80;99.90;;;;;;5011306;28;20220;-91
2022/10/25 07:57:00;;;;;;;14.73;3.37;;;13.80;99.90;;;;;;5016058;28;20242;-92
2022/10/25 07:59:28;;;;;;;10.07;2.90;;;13.80;99.90;;;;;;5019712;28;20690;-92
2022/10/25 08:02:03;;;;;;;13.17;3.90;;;13.80;99.90;;;;;;5020156;28;20259;-93
2022/10/25 08:04:32;;;;;;;10.87;3.40;;;13.80;99.90;;;;;;5015741;28;20277;-91
2022/10/25 08:07:00;;;;;;;10.23;3.60;;;13.80;99.90;;;;;;5011372;28;20235;-91
2022/10/25 08:09:30;;;;;;;6.83;3.67;;;13.90;99.90;;;;;;5021963;28;20204;-93
2022/10/25 08:11:58;;;;;;;12.10;3.43;;;13.80;99.90;;;;;;5020285;28;20236;-92
2022/10/25 08:14:28;;;;;;;9.07;3.20;;;13.90;99.90;;;;;;4997948;28;20219;-93
2022/10/25 08:16:55;;;;;;;11.57;3.87;;;14.00;99.90;;;;;;4998498;28;20224;-93
2022/10/25 08:19:29;;;;;;;10.10;3.63;;;14.10;99.90;;;;;;4999367;28;20204;-93
2022/10/25 08:22:01;;;;;;;12.37;3.80;;;14.20;99.90;;;;;;5005214;28;20314;-93
2022/10/25 08:24:33;;;;;;;8.53;3.00;;;14.30;99.90;;;;;;5016649;28;20316;-93
2022/10/25 08:27:08;;;;;;;12.93;2.63;;;14.30;99.90;;;;;;5007724;28;20211;-93
2022/10/25 08:29:39;;;;;;;9.97;2.80;;;14.30;99.90;;;;;;5012192;28;20224;-92
2022/10/25 08:32:13;;;;;;;12.17;3.00;;;14.40;99.90;;;;;;5013882;28;20320;-92
2022/10/25 08:34:43;;;;;;;9.13;2.93;;;14.40;99.90;;;;;;5013945;28;20295;-93
2022/10/25 08:37:13;;;;;;;7.03;2.57;;;14.50;99.90;;;;;;5013737;28;20244;-93
2022/10/25 08:39:40;;;;;;;13.10;3.27;;;14.60;99.90;;;;;;5013427;28;20217;-93
2022/10/25 08:42:15;;;;;;;5.77;2.60;;;14.50;99.90;;;;;;5011294;28;20405;-93
2022/10/25 08:44:56;;;;;;;6.00;2.60;;;14.50;99.90;;;;;;5019217;28;20271;-94
2022/10/25 08:47:32;;;;;;;8.40;2.63;;;14.50;99.90;;;;;;5016166;28;20235;-94
2022/10/25 08:50:05;;;;;;;11.17;3.00;;;14.50;99.90;;;;;;5018300;28;20193;-92
2022/10/25 08:52:46;;;;;;;11.13;2.47;;;14.50;99.90;;;;;;5010388;28;20267;-94
2022/10/25 08:55:17;;;;;;;10.80;2.60;;;14.50;99.90;;;;;;4996720;28;20300;-93
2022/10/25 08:57:52;;;;;;;8.67;2.47;;;14.50;99.90;;;;;;4997607;28;20231;-94
2022/10/25 09:00:22;;;;;;;10.60;2.33;;;14.50;99.90;;;;;;4996615;28;20299;-93
2022/10/25 09:02:54;;;;;;;12.00;2.70;;;14.50;99.90;;;;;;4999799;28;20233;-93
2022/10/25 09:05:37;;;;;;;10.53;2.43;;;14.60;99.90;;;;;;5017315;28;20628;-91
2022/10/25 09:08:30;;;;;;;5.70;2.43;;;14.70;99.90;;;;;;5004364;28;20202;-93
2022/10/25 09:11:09;;;;;;;7.63;2.67;;;14.70;99.90;;;;;;4997876;28;20673;-92
2022/10/25 09:13:49;;;;;;;5.10;1.97;;;14.80;99.90;;;;;;4992240;28;20228;-93
2022/10/25 09:16:21;;;;;;;5.03;2.10;;;14.90;99.90;;;;;;4995966;28;20209;-93
2022/10/25 09:18:56;;;;;;;9.10;2.13;;;15.00;99.90;;;;;;4992410;28;20216;-88
2022/10/25 09:21:35;;;;;;;9.13;2.63;;;15.20;99.90;;;;;;4995334;28;20201;-91
2022/10/25 09:24:12;;;;;;;8.43;2.17;;;15.20;99.90;;;;;;4992819;28;20382;-93
2022/10/25 09:26:53;;;;;;;11.07;2.30;;;15.20;99.90;;;;;;5013588;28;20253;-93
2022/10/25 09:29:32;;;;;;;11.93;2.30;;;15.30;99.90;;;;;;4998922;28;20215;-92
2022/10/25 09:32:01;;;;;;;6.80;1.80;;;15.40;99.90;;;;;;4996885;28;20314;-93
2022/10/25 09:34:34;;;;;;;5.10;1.70;;;15.60;99.90;;;;;;4997906;28;20200;-93
2022/10/25 09:37:18;;;;;;;8.63;2.03;;;15.70;99.90;;;;;;4998814;28;20203;-92
2022/10/25 09:40:02;;;;;;;10.17;2.23;;;15.70;99.90;;;;;;4987667;28;20200;-92
2022/10/25 09:42:36;;;;;;;6.07;1.77;;;15.80;99.90;;;;;;4996354;28;20224;-92
2022/10/25 09:45:07;;;;;;;7.50;2.20;;;15.80;99.90;;;;;;4990635;28;20288;-93
2022/10/25 09:47:42;;;;;;;9.47;2.37;;;15.70;99.90;;;;;;4992338;28;20262;-91
2022/10/25 09:50:15;;;;;;;5.03;1.90;;;15.80;99.90;;;;;;4988518;28;20204;-93
2022/10/25 09:52:50;;;;;;;6.07;2.07;;;15.80;99.90;;;;;;4997932;28;20240;-91
2022/10/25 09:55:39;;;;;;;5.23;2.00;;;15.80;99.90;;;;;;5005449;28;20200;-91
2022/10/25 09:58:08;;;;;;;5.73;2.07;;;15.70;99.90;;;;;;5004803;28;20219;-92
2022/10/25 10:00:39;;;;;;;3.63;1.63;;;15.80;99.90;;;;;;5004025;28;20211;-91
2022/10/25 10:03:09;;;;;;;7.53;2.17;;;15.80;99.90;;;;;;5003050;28;20229;-91
2022/10/25 10:05:37;;;;;;;4.40;2.03;;;15.90;99.90;;;;;;4996251;28;20208;-92
2022/10/25 10:08:16;;;;;;;4.20;1.60;;;15.80;99.90;;;;;;5004592;28;20224;-91
2022/10/25 10:10:47;;;;;;;6.47;2.17;;;15.80;99.90;;;;;;5005655;28;20219;-91
2022/10/25 10:13:20;;;;;;;7.17;1.97;;;15.70;99.90;;;;;;5003544;28;20237;-90
2022/10/25 10:15:54;;;;;;;8.33;2.33;;;15.70;99.90;;;;;;5003089;28;20293;-91
2022/10/25 10:18:24;;;;;;;5.80;1.70;;;15.70;99.90;;;;;;5002615;28;20291;-92
2022/10/25 10:21:03;;;;;;;9.13;1.93;;;15.70;99.90;;;;;;5000379;28;20213;-92
2022/10/25 10:23:35;;;;;;;7.60;1.97;;;15.90;99.90;;;;;;5001519;28;20267;-91
2022/10/25 10:26:10;;;;;;;5.60;1.77;;;16.10;99.90;;;;;;5005668;28;20274;-91
2022/10/25 10:28:37;;;;;;;12.40;1.70;;;16.00;99.90;;;;;;4985049;28;20270;-92
2022/10/25 10:31:07;;;;;;;9.50;2.07;;;16.10;99.90;;;;;;5001418;28;20217;-90
2022/10/25 10:33:35;;;;;;;6.27;2.10;;;16.00;99.90;;;;;;5002539;28;20571;-90
2022/10/25 10:36:20;;;;;;;8.00;2.00;;;16.10;99.90;;;;;;5001707;28;20208;-92
2022/10/25 10:38:49;;;;;;;7.77;1.80;;;16.10;99.90;;;;;;4999838;28;20231;-90
2022/10/25 10:41:23;;;;;;;3.83;2.07;;;16.10;99.90;;;;;;5000317;28;20231;-92
2022/10/25 10:43:51;;;;;;;7.17;2.20;;;16.00;99.90;;;;;;5001595;28;20230;-91
2022/10/25 10:46:22;;;;;;;6.33;2.30;;;16.00;99.90;;;;;;5001410;28;20299;-90
2022/10/25 10:48:57;;;;;;;5.73;1.90;;;16.00;99.90;;;;;;5003212;28;20211;-92
2022/10/25 10:51:38;;;;;;;4.70;2.33;;;16.00;99.90;;;;;;5005931;28;20219;-91
2022/10/25 10:54:25;;;;;;;12.97;3.30;;;15.90;99.90;;;;;;5006778;28;20205;-92
2022/10/25 10:57:00;;;;;;;9.60;2.97;;;16.00;99.90;;;;;;5012259;28;20245;-94
2022/10/25 10:59:41;;;;;;;10.93;2.77;;;16.00;99.90;;;;;;5008527;28;20200;-92
2022/10/25 11:02:22;;;;;;;11.13;2.73;;;16.10;99.90;;;;;;5007623;28;20301;-93
2022/10/25 11:04:53;;;;;;;4.73;1.83;;;16.10;99.90;;;;;;5003811;28;20237;-91
2022/10/25 11:07:29;;;;;;;8.03;2.03;;;16.10;99.90;;;;;;5003733;28;20216;-92
2022/10/25 11:10:20;;;;;;;6.43;2.30;;;16.20;99.90;;;;;;5009197;28;20204;-91
2022/10/25 11:13:08;;;;;;;7.60;2.30;;;16.30;99.90;;;;;;5000310;28;20268;-92
2022/10/25 11:16:00;;;;;;;7.40;2.30;;;16.40;99.90;;;;;;5006240;28;20299;-92
2022/10/25 11:18:45;;;;;;;6.27;1.70;;;16.70;99.90;;;;;;4969185;28;20260;-91
2022/10/25 11:21:24;;;;;;;5.97;1.67;;;16.70;99.90;;;;;;5012319;28;20219;-91
2022/10/25 11:24:08;;;;;;;6.63;1.87;;;16.80;99.90;;;;;;5006502;28;20215;-91
2022/10/25 11:26:49;;;;;;;3.80;1.53;;;16.80;99.90;;;;;;5000265;28;20223;-91
2022/10/25 11:29:23;;;;;;;6.50;1.70;;;16.80;99.90;;;;;;4989799;28;20233;-92
2022/10/25 11:31:59;;;;;;;7.03;1.53;;;16.80;99.90;;;;;;5001877;28;20257;-91
2022/10/25 11:34:34;;;;;;;5.90;1.40;;;16.80;99.90;;;;;;4991086;28;20244;-93
2022/10/25 11:37:10;;;;;;;6.63;1.98;;;16.90;99.90;;;;;;4998696;28;20419;-93
2022/10/25 11:39:46;;;;;;;3.30;1.50;;;17.10;99.90;;;;;;4987389;28;20230;-92
2022/10/25 11:42:33;;;;;;;8.77;2.17;;;17.20;99.90;;;;;;4997796;28;20322;-94
2022/10/25 11:45:22;;;;;;;6.83;1.53;;;17.20;99.90;;;;;;4998080;28;20271;-92
2022/10/25 11:48:00;;;;;;;6.33;1.70;;;17.30;99.90;;;;;;4998795;28;20204;-91
2022/10/25 11:50:34;;;;;;;4.87;1.40;;;17.30;99.90;;;;;;4997665;28;20305;-93
2022/10/25 11:53:22;;;;;;;7.93;2.70;;;17.30;99.90;;;;;;4988669;28;20255;-93
2022/10/25 11:55:54;;;;;;;4.97;2.10;;;17.20;99.90;;;;;;4977658;28;20227;-93
2022/10/25 11:58:44;;;;;;;7.13;1.73;;;17.10;99.90;;;;;;4996799;28;20223;-93
2022/10/25 12:01:26;;;;;;;7.50;2.07;;;17.20;99.90;;;;;;4997799;28;20232;-92
2022/10/25 12:04:07;;;;;;;8.60;1.60;;;17.40;99.90;;;;;;4998195;28;20235;-93
2022/10/25 12:06:46;;;;;;;7.87;1.67;;;17.50;99.90;;;;;;4997204;28;20376;-92
2022/10/25 12:09:25;;;;;;;3.73;1.43;;;17.60;99.90;;;;;;5000218;28;20230;-92
2022/10/25 12:11:57;;;;;;;4.37;1.67;;;17.60;99.90;;;;;;4994413;28;20264;-91
2022/10/25 12:14:32;;;;;;;8.93;1.63;;;17.60;99.90;;;;;;4979013;28;20204;-92
2022/10/25 12:17:01;;;;;;;5.30;1.63;;;17.60;99.90;;;;;;5000742;28;20203;-93
2022/10/25 12:19:43;;;;;;;4.90;1.30;;;17.60;99.90;;;;;;4988693;28;20294;-93
2022/10/25 12:22:16;;;;;;;7.17;1.60;;;17.70;99.90;;;;;;4988855;28;20327;-92
2022/10/25 12:24:48;;;;;;;11.20;4.80;;;17.80;99.90;;;;;;4996726;28;20335;-93
2022/10/25 12:27:21;;;;;;;7.97;3.07;;;17.90;99.90;;;;;;4985253;28;20260;-93
2022/10/25 12:29:54;;;;;;;4.90;1.77;;;18.00;99.90;;;;;;4977408;28;20209;-92
2022/10/25 12:32:29;;;;;;;4.80;1.43;;;18.00;99.90;;;;;;4977352;28;20243;-90
2022/10/25 12:35:02;;;;;;;2.77;1.33;;;18.20;99.90;;;;;;4978727;28;20251;-92
2022/10/25 12:37:37;;;;;;;4.63;1.33;;;18.00;99.90;;;;;;4999507;28;20200;-91
2022/10/25 12:40:07;;;;;;;8.40;1.93;;;18.10;99.90;;;;;;4999833;28;20196;-93
2022/10/25 12:42:45;;;;;;;5.30;1.57;;;18.10;99.90;;;;;;4999776;28;20210;-90
2022/10/25 12:45:45;;;;;;;7.50;1.57;;;18.20;99.90;;;;;;4999759;28;20283;-94
2022/10/25 12:48:47;;;;;;;6.43;1.60;;;18.20;99.90;;;;;;4999778;28;20193;-94
2022/10/25 12:51:37;;;;;;;2.77;1.13;;;18.20;99.90;;;;;;4999364;28;20208;-92
2022/10/25 12:54:20;;;;;;;5.20;1.40;;;18.20;99.90;;;;;;4993884;28;20201;-94
2022/10/25 12:56:59;;;;;;;5.47;1.67;;;18.20;99.90;;;;;;4999156;28;20211;-94
2022/10/25 12:59:50;;;;;;;5.50;1.57;;;18.10;99.90;;;;;;5008327;28;20215;-93
2022/10/25 13:02:49;;;;;;;5.60;1.30;;;18.00;99.90;;;;;;5009313;28;20224;-95
2022/10/25 13:05:54;;;;;;;6.07;1.80;;;18.10;99.90;;;;;;5008510;28;20232;-94
2022/10/25 13:08:24;;;;;;;5.20;1.33;;;18.30;99.90;;;;;;5000204;28;20205;-95
2022/10/25 13:10:59;;;;;;;7.00;2.97;;;18.30;99.90;;;;;;4997801;28;20434;-96
2022/10/25 13:13:29;;;;;;;4.43;1.33;;;18.20;99.90;;;;;;4997188;28;20246;-91
2022/10/25 13:16:01;;;;;;;4.70;1.47;;;18.10;99.90;;;;;;4998935;28;20216;-93
2022/10/25 13:19:05;;;;;;;8.23;1.53;;;18.10;99.90;;;;;;4998016;28;20688;-96